Time;durP1;ratioP1;P1;durP2;ratioP2;P2;SDS_P1;SDS_P2;PMS_P1;PMS_P2;Temp;Humidity;BMP_temperature;BMP_pressure;BME280_temperature;BME280_humidity;BME280_pressure;Samples;Min_cycle;Max_cycle;Signal;HPM_P1;HPM_P2
2023/12/05 00:00:34;;;;;;;29.95;18.85;;;1.00;99.90;;;;;;5118122;27;20046;-58
2023/12/05 00:03:01;;;;;;;27.80;19.60;;;1.00;99.90;;;;;;5117944;28;20490;-57
2023/12/05 00:05:26;;;;;;;30.63;20.20;;;1.00;99.90;;;;;;5119936;28;20838;-58
2023/12/05 00:07:52;;;;;;;32.37;21.13;;;1.00;99.90;;;;;;5114820;28;20036;-59
2023/12/05 00:10:17;;;;;;;29.10;19.90;;;1.00;99.90;;;;;;5113780;28;20046;-59
2023/12/05 00:12:43;;;;;;;30.60;19.80;;;1.00;99.90;;;;;;5110644;28;20123;-59
2023/12/05 00:15:09;;;;;;;26.80;19.70;;;1.00;99.90;;;;;;5111138;28;20406;-57
2023/12/05 00:17:34;;;;;;;31.33;21.93;;;1.00;99.90;;;;;;5110276;28;20035;-58
2023/12/05 00:20:00;;;;;;;29.23;19.87;;;1.00;99.90;;;;;;5085242;28;20047;-58
2023/12/05 00:22:27;;;;;;;36.33;21.93;;;1.00;99.90;;;;;;5113518;28;20372;-59
2023/12/05 00:24:52;;;;;;;30.90;21.10;;;1.00;99.90;;;;;;5110800;28;20062;-58
2023/12/05 00:27:18;;;;;;;29.23;21.03;;;0.90;99.90;;;;;;5112989;28;20493;-56
2023/12/05 00:29:44;;;;;;;31.77;21.07;;;0.90;99.90;;;;;;5113268;28;20032;-58
2023/12/05 00:32:10;;;;;;;30.48;19.85;;;0.90;99.90;;;;;;5114248;28;20047;-59
2023/12/05 00:34:36;;;;;;;33.13;21.57;;;0.90;99.90;;;;;;5116034;28;20413;-59
2023/12/05 00:37:03;;;;;;;35.10;21.13;;;0.90;99.90;;;;;;5116831;28;20494;-59
2023/12/05 00:39:28;;;;;;;34.10;23.52;;;0.90;99.90;;;;;;5101632;28;20059;-59
2023/12/05 00:41:54;;;;;;;31.17;21.63;;;0.90;99.90;;;;;;5117882;28;20066;-59
2023/12/05 00:44:20;;;;;;;34.27;22.73;;;0.90;99.90;;;;;;5111661;28;20043;-59
2023/12/05 00:46:45;;;;;;;30.70;21.23;;;0.90;99.90;;;;;;5091085;28;20113;-59
2023/12/05 00:49:11;;;;;;;30.60;21.43;;;0.90;99.90;;;;;;5111488;28;20037;-59
2023/12/05 00:51:36;;;;;;;35.43;22.13;;;0.90;99.90;;;;;;5113813;27;20036;-59
2023/12/05 00:54:02;;;;;;;34.73;21.90;;;0.90;99.90;;;;;;5114070;27;20456;-59
2023/12/05 00:56:28;;;;;;;35.00;22.73;;;0.90;99.90;;;;;;5118594;27;20123;-59
2023/12/05 00:58:53;;;;;;;34.23;21.90;;;0.90;99.90;;;;;;5116841;27;20075;-59
2023/12/05 01:01:19;;;;;;;34.90;22.33;;;0.90;99.90;;;;;;5117543;27;20038;-58
2023/12/05 01:03:45;;;;;;;34.92;22.88;;;0.90;99.90;;;;;;5116930;27;20073;-59
2023/12/05 01:06:11;;;;;;;32.53;21.65;;;0.90;99.90;;;;;;5117032;27;20394;-59
2023/12/05 01:08:37;;;;;;;30.47;21.27;;;0.90;99.90;;;;;;5118521;27;20074;-59
2023/12/05 01:11:02;;;;;;;33.13;21.30;;;0.90;99.90;;;;;;5121913;27;20644;-57
2023/12/05 01:13:28;;;;;;;34.43;22.40;;;0.90;99.90;;;;;;5127769;27;20027;-58
2023/12/05 01:15:53;;;;;;;31.00;21.57;;;0.90;99.90;;;;;;5122712;27;20027;-59
2023/12/05 01:18:19;;;;;;;34.40;23.80;;;0.90;99.90;;;;;;5125216;27;20027;-56
2023/12/05 01:20:45;;;;;;;31.43;21.90;;;0.90;99.90;;;;;;5112340;27;20032;-60
2023/12/05 01:23:10;;;;;;;31.77;21.67;;;0.90;99.90;;;;;;5111495;27;20122;-59
2023/12/05 01:25:36;;;;;;;33.40;20.83;;;0.90;99.90;;;;;;5115231;27;20482;-59
2023/12/05 01:28:02;;;;;;;33.30;22.13;;;0.90;99.90;;;;;;5116687;27;20407;-59
2023/12/05 01:30:28;;;;;;;33.10;22.05;;;0.90;99.90;;;;;;5118501;27;20074;-58
2023/12/05 01:32:54;;;;;;;30.95;22.00;;;0.90;99.90;;;;;;5117142;27;20075;-57
2023/12/05 01:35:19;;;;;;;32.47;20.90;;;1.00;99.90;;;;;;5119156;27;20035;-57
2023/12/05 01:37:47;;;;;;;33.13;22.43;;;1.00;99.90;;;;;;5117583;27;20269;-59
2023/12/05 01:40:13;;;;;;;32.90;22.75;;;1.00;99.90;;;;;;5120259;27;20303;-59
2023/12/05 01:42:38;;;;;;;32.73;22.57;;;1.00;99.90;;;;;;5120057;27;20055;-59
2023/12/05 01:45:10;;;;;;;35.22;21.73;;;0.90;99.90;;;;;;5119906;27;20127;-58
2023/12/05 01:47:39;;;;;;;35.67;22.75;;;1.00;99.90;;;;;;5120404;27;20075;-57
2023/12/05 01:50:10;;;;;;;33.60;22.35;;;1.00;99.90;;;;;;5120033;27;20490;-59
2023/12/05 01:52:39;;;;;;;30.83;21.10;;;1.00;99.90;;;;;;5112830;27;20071;-59
2023/12/05 01:55:06;;;;;;;32.33;21.92;;;1.00;99.90;;;;;;5113281;27;20119;-59
2023/12/05 01:57:33;;;;;;;31.67;21.83;;;1.00;99.90;;;;;;5112007;27;20456;-59
2023/12/05 02:00:00;;;;;;;32.65;20.80;;;1.00;99.90;;;;;;5114168;27;20047;-59
2023/12/05 02:02:25;;;;;;;34.28;22.38;;;1.00;99.90;;;;;;5115333;27;20434;-59
2023/12/05 02:04:51;;;;;;;33.23;22.50;;;1.00;99.90;;;;;;5115368;27;20040;-59
2023/12/05 02:07:17;;;;;;;32.23;22.53;;;1.00;99.90;;;;;;5119244;27;20066;-59
2023/12/05 02:09:44;;;;;;;31.30;21.60;;;1.00;99.90;;;;;;5122441;27;21148;-59
2023/12/05 02:12:10;;;;;;;33.50;23.15;;;1.00;99.90;;;;;;5118128;27;20047;-59
2023/12/05 02:14:35;;;;;;;34.87;22.47;;;1.00;99.90;;;;;;5118246;27;20595;-59
2023/12/05 02:17:13;;;;;;;34.63;22.92;;;1.00;99.90;;;;;;5113005;27;20038;-59
2023/12/05 02:19:42;;;;;;;34.25;22.75;;;1.00;99.90;;;;;;5112801;27;20039;-58
2023/12/05 02:22:32;;;;;;;36.55;23.58;;;1.00;99.90;;;;;;5115807;27;20374;-59
2023/12/05 02:25:36;;;;;;;31.85;23.42;;;1.00;99.90;;;;;;5075899;27;20055;-61
2023/12/05 02:28:03;;;;;;;31.70;22.05;;;1.00;99.90;;;;;;5114466;27;20582;-61
2023/12/05 02:30:29;;;;;;;33.15;22.30;;;1.00;99.90;;;;;;5112523;27;20433;-61
2023/12/05 02:32:54;;;;;;;32.03;23.03;;;1.00;99.90;;;;;;5112460;27;20122;-61
2023/12/05 02:35:20;;;;;;;34.03;22.92;;;1.00;99.90;;;;;;5113665;27;20554;-61
2023/12/05 02:37:59;;;;;;;35.57;24.77;;;1.00;99.90;;;;;;5114452;27;20077;-62
2023/12/05 02:41:03;;;;;;;34.22;23.48;;;1.00;99.90;;;;;;5113750;27;20114;-61
2023/12/05 02:43:36;;;;;;;32.28;22.25;;;1.00;99.90;;;;;;5115729;27;20048;-62
2023/12/05 02:46:04;;;;;;;35.45;23.85;;;1.00;99.90;;;;;;5117924;27;20493;-61
2023/12/05 02:48:30;;;;;;;30.25;21.60;;;1.10;99.90;;;;;;5118267;27;20035;-62
2023/12/05 02:50:56;;;;;;;29.83;22.38;;;1.10;99.90;;;;;;5115413;27;20042;-61
2023/12/05 02:53:22;;;;;;;34.70;23.33;;;1.10;99.90;;;;;;5119279;27;20031;-61
2023/12/05 02:55:48;;;;;;;33.67;23.00;;;1.10;99.90;;;;;;5116377;27;20142;-61
2023/12/05 02:58:14;;;;;;;34.85;24.33;;;1.10;99.90;;;;;;5121409;27;20027;-62
2023/12/05 03:00:41;;;;;;;35.67;23.80;;;1.10;99.90;;;;;;5122549;27;20043;-63
2023/12/05 03:03:06;;;;;;;31.80;23.45;;;1.10;99.90;;;;;;5121075;27;20039;-63
2023/12/05 03:05:32;;;;;;;37.57;23.60;;;1.10;99.90;;;;;;5113737;27;20076;-61
2023/12/05 03:07:58;;;;;;;35.27;23.97;;;1.10;99.90;;;;;;5113368;27;20035;-60
2023/12/05 03:10:23;;;;;;;35.13;23.60;;;1.10;99.90;;;;;;5113722;27;20293;-61
2023/12/05 03:12:49;;;;;;;30.37;22.37;;;1.10;99.90;;;;;;5112932;27;20582;-62
2023/12/05 03:15:15;;;;;;;34.80;24.07;;;1.10;99.90;;;;;;5112422;27;20280;-61
2023/12/05 03:17:40;;;;;;;32.80;22.47;;;1.10;99.90;;;;;;5113646;27;20453;-61
2023/12/05 03:20:07;;;;;;;30.67;22.33;;;1.10;99.90;;;;;;5113344;27;20044;-60
2023/12/05 03:22:32;;;;;;;33.08;22.90;;;1.10;99.90;;;;;;5112793;27;20073;-61
2023/12/05 03:24:58;;;;;;;32.17;22.37;;;1.10;99.90;;;;;;5114738;27;20502;-60
2023/12/05 03:27:24;;;;;;;32.50;22.10;;;1.10;99.90;;;;;;5099282;27;20032;-59
2023/12/05 03:29:49;;;;;;;32.17;22.80;;;1.10;99.90;;;;;;5116044;27;20114;-60
2023/12/05 03:32:15;;;;;;;31.03;22.10;;;1.10;99.90;;;;;;5119224;28;20040;-62
2023/12/05 03:34:41;;;;;;;36.38;23.45;;;1.10;99.90;;;;;;5118224;28;20550;-60
2023/12/05 03:37:06;;;;;;;32.43;23.00;;;1.10;99.90;;;;;;5117873;27;20036;-61
2023/12/05 03:39:32;;;;;;;30.60;21.90;;;1.10;99.90;;;;;;5118560;28;20047;-61
2023/12/05 03:41:58;;;;;;;29.40;21.33;;;1.10;99.90;;;;;;5105340;28;20024;-62
2023/12/05 03:44:23;;;;;;;40.25;24.42;;;1.10;99.90;;;;;;5111325;28;20471;-60
2023/12/05 03:46:49;;;;;;;32.80;22.93;;;1.10;99.90;;;;;;5114534;28;20034;-61
2023/12/05 03:49:15;;;;;;;33.90;23.35;;;1.10;99.90;;;;;;5113554;27;20361;-61
2023/12/05 03:51:40;;;;;;;36.20;24.10;;;1.10;99.90;;;;;;5112470;28;20051;-61
2023/12/05 03:54:07;;;;;;;33.17;23.90;;;1.10;99.90;;;;;;5114456;28;20047;-59
2023/12/05 03:56:33;;;;;;;32.55;23.85;;;1.10;99.90;;;;;;5116960;27;20054;-60
2023/12/05 03:58:59;;;;;;;30.37;21.10;;;1.20;99.90;;;;;;5116947;28;20486;-61
2023/12/05 04:01:24;;;;;;;31.90;22.60;;;1.10;99.90;;;;;;5118929;27;20047;-61
2023/12/05 04:03:50;;;;;;;33.13;23.20;;;1.10;99.90;;;;;;5113180;28;20035;-61
2023/12/05 04:06:23;;;;;;;34.92;23.80;;;1.10;99.90;;;;;;5119846;28;20043;-62
2023/12/05 04:08:49;;;;;;;35.90;23.88;;;1.20;99.90;;;;;;5114500;27;20438;-61
2023/12/05 04:11:15;;;;;;;36.05;23.58;;;1.10;99.90;;;;;;5116982;27;20042;-61
2023/12/05 04:13:41;;;;;;;36.63;24.35;;;1.20;99.90;;;;;;5118430;27;20489;-61
2023/12/05 04:16:07;;;;;;;36.97;25.17;;;1.20;99.90;;;;;;5111663;28;20047;-62
2023/12/05 04:18:32;;;;;;;40.20;25.77;;;1.10;99.90;;;;;;5110781;28;20044;-61
2023/12/05 04:20:58;;;;;;;37.37;26.67;;;1.10;99.90;;;;;;5109644;28;20585;-62
2023/12/05 04:23:24;;;;;;;34.53;24.33;;;1.10;99.90;;;;;;5111762;28;20270;-62
2023/12/05 04:25:49;;;;;;;37.90;25.17;;;1.10;99.90;;;;;;5110148;28;20032;-62
2023/12/05 04:28:15;;;;;;;38.97;28.10;;;1.10;99.90;;;;;;5118633;27;20039;-60
2023/12/05 04:30:40;;;;;;;39.53;26.07;;;1.10;99.90;;;;;;5116609;27;20673;-63
2023/12/05 04:33:06;;;;;;;41.77;26.00;;;1.10;99.90;;;;;;5117130;27;20040;-60
2023/12/05 04:35:32;;;;;;;44.93;28.90;;;1.10;99.90;;;;;;5117792;27;20050;-60
2023/12/05 04:37:57;;;;;;;40.37;28.30;;;1.10;99.90;;;;;;5099802;27;20040;-60
2023/12/05 04:40:23;;;;;;;40.80;26.53;;;1.10;99.90;;;;;;5120306;27;20031;-59
2023/12/05 04:42:49;;;;;;;38.93;27.33;;;1.20;99.90;;;;;;5119178;27;20104;-60
2023/12/05 04:45:15;;;;;;;40.00;25.08;;;1.10;99.90;;;;;;5121600;27;20393;-60
2023/12/05 04:47:41;;;;;;;43.22;27.27;;;1.10;99.90;;;;;;5113079;27;20043;-62
2023/12/05 04:50:07;;;;;;;39.30;26.47;;;1.10;99.90;;;;;;5123228;27;20324;-59
2023/12/05 04:52:33;;;;;;;36.85;24.50;;;1.10;99.90;;;;;;5122473;27;20037;-59
2023/12/05 04:54:59;;;;;;;38.80;26.80;;;1.20;99.90;;;;;;5114435;27;20031;-60
2023/12/05 04:57:24;;;;;;;39.47;27.10;;;1.20;99.90;;;;;;5115868;27;20067;-60
2023/12/05 04:59:50;;;;;;;40.07;25.67;;;1.20;99.90;;;;;;5112810;27;20043;-60
2023/12/05 05:02:16;;;;;;;38.60;24.93;;;1.20;99.90;;;;;;5116211;27;20040;-60
2023/12/05 05:04:41;;;;;;;37.87;27.93;;;1.20;99.90;;;;;;5117779;27;20119;-60
2023/12/05 05:07:07;;;;;;;37.87;26.77;;;1.20;99.90;;;;;;5117532;27;20040;-60
2023/12/05 05:09:34;;;;;;;38.20;26.00;;;1.20;99.90;;;;;;5115897;27;20097;-59
2023/12/05 05:12:00;;;;;;;38.97;27.02;;;1.20;99.90;;;;;;5118481;27;20032;-63
2023/12/05 05:14:26;;;;;;;41.03;27.33;;;1.20;99.90;;;;;;5118195;27;20086;-59
2023/12/05 05:16:51;;;;;;;42.97;28.37;;;1.20;99.90;;;;;;5115471;27;20387;-58
2023/12/05 05:19:17;;;;;;;44.27;28.93;;;1.20;99.90;;;;;;5117623;27;20106;-60
2023/12/05 05:21:42;;;;;;;37.13;27.00;;;1.20;99.90;;;;;;5116960;27;20031;-59
2023/12/05 05:24:08;;;;;;;37.63;26.80;;;1.20;99.90;;;;;;5121239;27;20101;-59
2023/12/05 05:26:34;;;;;;;41.27;28.97;;;1.20;99.90;;;;;;5117634;27;20050;-60
2023/12/05 05:28:59;;;;;;;41.63;28.87;;;1.20;99.90;;;;;;5120337;27;20379;-62
2023/12/05 05:31:25;;;;;;;43.00;30.03;;;1.20;99.90;;;;;;5120954;27;20097;-61
2023/12/05 05:33:50;;;;;;;41.80;29.83;;;1.20;99.90;;;;;;5112618;27;20040;-62
2023/12/05 05:36:16;;;;;;;40.83;29.37;;;1.20;99.90;;;;;;5113363;27;20031;-61
2023/12/05 05:38:42;;;;;;;53.33;32.50;;;1.20;99.90;;;;;;5113465;27;20115;-60
2023/12/05 05:41:08;;;;;;;44.20;29.40;;;1.20;99.90;;;;;;5097309;27;20039;-60
2023/12/05 05:43:33;;;;;;;50.13;33.22;;;1.20;99.90;;;;;;5115317;27;20207;-60
2023/12/05 05:46:00;;;;;;;44.67;30.93;;;1.20;99.90;;;;;;5114761;27;21207;-58
2023/12/05 05:48:26;;;;;;;44.13;30.55;;;1.20;99.90;;;;;;5117415;27;20040;-60
2023/12/05 05:50:51;;;;;;;44.78;30.00;;;1.20;99.90;;;;;;5117023;27;20046;-60
2023/12/05 05:53:17;;;;;;;46.67;32.23;;;1.20;99.90;;;;;;5111283;27;20053;-60
2023/12/05 05:55:43;;;;;;;50.43;31.13;;;1.20;99.90;;;;;;5118739;27;20325;-60
2023/12/05 05:58:12;;;;;;;49.70;32.13;;;1.20;99.90;;;;;;5119490;27;20425;-61
2023/12/05 06:00:37;;;;;;;45.08;30.92;;;1.20;99.90;;;;;;5095136;27;20037;-60
2023/12/05 06:03:05;;;;;;;46.13;31.63;;;1.20;99.90;;;;;;5118665;27;20043;-60
2023/12/05 06:05:30;;;;;;;51.72;32.95;;;1.20;99.90;;;;;;5117830;27;21171;-60
2023/12/05 06:07:56;;;;;;;48.13;31.00;;;1.20;99.90;;;;;;5116176;27;20044;-60
2023/12/05 06:10:22;;;;;;;47.27;30.93;;;1.20;99.90;;;;;;5114036;27;20055;-59
2023/12/05 06:12:47;;;;;;;51.00;32.83;;;1.20;99.90;;;;;;5112337;27;20281;-60
2023/12/05 06:15:13;;;;;;;51.63;32.93;;;1.20;99.90;;;;;;5113641;27;20338;-60
2023/12/05 06:17:39;;;;;;;50.65;34.00;;;1.20;99.90;;;;;;5114406;27;20477;-60
2023/12/05 06:20:05;;;;;;;46.63;31.97;;;1.20;99.90;;;;;;5111390;27;20114;-60
2023/12/05 06:22:31;;;;;;;50.47;33.58;;;1.20;99.90;;;;;;5114149;27;20042;-60
2023/12/05 06:24:57;;;;;;;52.15;33.38;;;1.20;99.90;;;;;;5117015;27;20039;-60
2023/12/05 06:27:23;;;;;;;53.67;33.80;;;1.20;99.90;;;;;;5107877;27;20044;-60
2023/12/05 06:29:48;;;;;;;52.57;33.67;;;1.20;99.90;;;;;;5116229;27;20410;-62
2023/12/05 06:32:14;;;;;;;49.00;30.47;;;1.20;99.90;;;;;;5125662;27;20283;-60
2023/12/05 06:34:39;;;;;;;53.03;33.53;;;1.20;99.90;;;;;;5122817;27;20479;-60
2023/12/05 06:37:05;;;;;;;52.10;32.77;;;1.20;99.90;;;;;;5120679;27;20493;-60
2023/12/05 06:39:31;;;;;;;54.47;35.23;;;1.20;99.90;;;;;;5117600;27;20148;-59
2023/12/05 06:41:56;;;;;;;49.57;32.57;;;1.20;99.90;;;;;;5115422;27;20053;-58
2023/12/05 06:44:22;;;;;;;52.10;34.37;;;1.20;99.90;;;;;;5118700;27;20061;-58
2023/12/05 06:46:47;;;;;;;54.77;35.30;;;1.20;99.90;;;;;;5114641;27;20529;-60
2023/12/05 06:49:13;;;;;;;48.97;32.43;;;1.20;99.90;;;;;;5110090;27;20075;-60
2023/12/05 06:51:40;;;;;;;53.93;35.47;;;1.20;99.90;;;;;;5111739;27;20035;-58
2023/12/05 06:54:05;;;;;;;52.70;35.00;;;1.30;99.90;;;;;;5114575;27;20061;-60
2023/12/05 06:56:31;;;;;;;53.60;33.97;;;1.30;99.90;;;;;;5113763;27;20400;-59
2023/12/05 06:58:58;;;;;;;52.50;34.47;;;1.30;99.90;;;;;;5115951;27;20096;-60
2023/12/05 07:01:23;;;;;;;52.15;33.75;;;1.30;99.90;;;;;;5113152;27;20047;-60
2023/12/05 07:03:49;;;;;;;49.97;34.50;;;1.30;99.90;;;;;;5115693;27;20024;-59
2023/12/05 07:06:14;;;;;;;56.97;33.83;;;1.20;99.90;;;;;;5117736;27;20035;-60
2023/12/05 07:08:40;;;;;;;54.53;31.80;;;1.20;99.90;;;;;;5116835;27;20139;-60
2023/12/05 07:11:06;;;;;;;54.80;34.27;;;1.30;99.90;;;;;;5114411;27;20040;-60
2023/12/05 07:13:31;;;;;;;53.72;34.45;;;1.30;99.90;;;;;;5112417;27;20520;-58
2023/12/05 07:15:57;;;;;;;52.20;31.37;;;1.30;99.90;;;;;;5108634;27;20040;-58
2023/12/05 07:18:23;;;;;;;63.73;35.07;;;1.30;99.90;;;;;;5117425;27;20039;-59
2023/12/05 07:20:49;;;;;;;51.33;30.10;;;1.30;99.90;;;;;;5109124;27;20401;-59
2023/12/05 07:23:14;;;;;;;58.57;34.40;;;1.40;99.90;;;;;;5105325;27;20301;-58
2023/12/05 07:25:40;;;;;;;56.07;34.67;;;1.40;99.90;;;;;;5112158;27;20276;-58
2023/12/05 07:28:05;;;;;;;47.80;33.13;;;1.40;99.90;;;;;;5103451;27;20055;-60
2023/12/05 07:30:31;;;;;;;57.67;35.07;;;1.40;99.90;;;;;;5106786;27;20030;-58
2023/12/05 07:32:57;;;;;;;58.03;34.73;;;1.30;99.90;;;;;;5100613;27;20039;-59
2023/12/05 07:35:22;;;;;;;60.90;36.53;;;1.30;99.90;;;;;;5109922;28;20074;-57
2023/12/05 07:37:49;;;;;;;51.90;33.13;;;1.30;99.90;;;;;;5109907;27;20031;-58
2023/12/05 07:40:15;;;;;;;49.78;31.77;;;1.30;99.90;;;;;;5108352;27;20042;-58
2023/12/05 07:42:41;;;;;;;56.63;32.85;;;1.30;99.90;;;;;;5105979;28;20039;-60
2023/12/05 07:45:07;;;;;;;51.40;33.80;;;1.40;99.90;;;;;;5112935;28;20040;-60
2023/12/05 07:47:33;;;;;;;54.72;35.08;;;1.40;99.90;;;;;;5104605;28;20051;-60
2023/12/05 07:49:59;;;;;;;57.15;37.28;;;1.40;99.90;;;;;;5101636;28;20049;-60
2023/12/05 07:52:25;;;;;;;53.95;34.28;;;1.40;99.90;;;;;;5104182;28;20036;-60
2023/12/05 07:54:51;;;;;;;55.97;34.22;;;1.40;99.90;;;;;;5105353;28;20421;-60
2023/12/05 07:57:22;;;;;;;56.60;34.20;;;1.40;99.90;;;;;;5103400;28;20500;-59
2023/12/05 07:59:48;;;;;;;48.42;31.55;;;1.40;99.90;;;;;;5106325;27;20546;-60
2023/12/05 08:02:14;;;;;;;52.55;32.72;;;1.40;99.90;;;;;;5106210;27;21005;-60
2023/12/05 08:04:40;;;;;;;58.67;33.88;;;1.30;99.90;;;;;;5108426;27;20062;-59
2023/12/05 08:07:05;;;;;;;52.20;33.47;;;1.30;99.90;;;;;;5110995;27;20348;-59
2023/12/05 08:09:31;;;;;;;57.63;34.23;;;1.30;99.90;;;;;;5102428;27;20119;-60
2023/12/05 08:11:56;;;;;;;53.63;33.63;;;1.40;99.90;;;;;;5102919;27;20036;-60
2023/12/05 08:14:22;;;;;;;51.97;34.17;;;1.40;99.90;;;;;;5109317;27;20031;-61
2023/12/05 08:16:48;;;;;;;53.33;33.63;;;1.30;99.90;;;;;;5107185;27;20032;-60
2023/12/05 08:19:13;;;;;;;45.67;31.27;;;1.30;99.90;;;;;;5107729;27;20043;-61
2023/12/05 08:21:39;;;;;;;53.10;32.47;;;1.40;99.90;;;;;;5107622;27;20039;-61
2023/12/05 08:24:04;;;;;;;54.77;33.80;;;1.40;99.90;;;;;;5106058;27;20048;-60
2023/12/05 08:26:31;;;;;;;51.83;33.60;;;1.40;99.90;;;;;;5111632;27;20501;-61
2023/12/05 08:28:58;;;;;;;49.85;32.97;;;1.40;99.90;;;;;;5110854;27;20370;-61
2023/12/05 08:31:24;;;;;;;55.38;31.83;;;1.40;99.90;;;;;;5113431;27;20032;-60
2023/12/05 08:33:50;;;;;;;52.35;30.83;;;1.40;99.90;;;;;;5108943;27;20024;-61
2023/12/05 08:36:16;;;;;;;57.92;32.90;;;1.40;99.90;;;;;;5113483;27;20143;-60
2023/12/05 08:38:41;;;;;;;51.33;31.67;;;1.40;99.90;;;;;;5100056;27;20074;-60
2023/12/05 08:41:07;;;;;;;46.07;30.63;;;1.40;99.90;;;;;;5105144;27;20351;-59
2023/12/05 08:43:33;;;;;;;50.17;31.60;;;1.40;99.90;;;;;;5087455;28;20093;-60
2023/12/05 08:45:59;;;;;;;50.97;33.90;;;1.40;99.90;;;;;;5108966;27;20039;-60
2023/12/05 08:48:25;;;;;;;108.63;31.77;;;1.40;99.90;;;;;;5106095;27;20139;-60
2023/12/05 08:50:51;;;;;;;63.93;32.53;;;1.40;99.90;;;;;;5110557;27;20502;-61
2023/12/05 08:53:17;;;;;;;61.13;30.20;;;1.40;99.90;;;;;;5109679;27;20027;-59
2023/12/05 08:55:43;;;;;;;59.90;31.67;;;1.50;99.90;;;;;;5106229;27;20042;-60
2023/12/05 08:58:09;;;;;;;;;;;1.50;99.90;;;;;;5112480;27;20289;-60
2023/12/05 09:00:35;;;;;;;49.17;31.10;;;1.50;99.90;;;;;;5114496;27;19915;-59
2023/12/05 09:03:00;;;;;;;48.47;31.33;;;1.50;99.90;;;;;;5110951;27;20046;-60
2023/12/05 09:05:26;;;;;;;47.65;31.15;;;1.50;99.90;;;;;;5114785;27;20107;-61
2023/12/05 09:07:52;;;;;;;48.57;29.73;;;1.50;99.90;;;;;;5111138;27;20089;-61
2023/12/05 09:10:17;;;;;;;54.90;35.53;;;1.50;99.90;;;;;;5113387;27;20028;-60
2023/12/05 09:12:43;;;;;;;50.47;31.33;;;1.50;99.90;;;;;;5114260;27;20371;-62
2023/12/05 09:15:09;;;;;;;52.00;32.40;;;1.50;99.90;;;;;;5117565;27;20152;-60
2023/12/05 09:17:34;;;;;;;50.60;32.03;;;1.50;99.90;;;;;;5116382;27;20037;-61
2023/12/05 09:20:00;;;;;;;53.50;33.73;;;1.50;99.90;;;;;;5111630;27;20652;-63
2023/12/05 09:22:26;;;;;;;51.47;31.60;;;1.50;99.90;;;;;;5107306;27;20050;-60
2023/12/05 09:24:51;;;;;;;51.90;31.93;;;1.50;99.90;;;;;;5105506;27;20036;-59
2023/12/05 09:27:17;;;;;;;50.40;33.00;;;1.50;99.90;;;;;;5111602;27;20024;-60
2023/12/05 09:29:42;;;;;;;53.60;33.63;;;1.50;99.90;;;;;;5112434;27;20541;-61
2023/12/05 09:32:08;;;;;;;53.13;34.47;;;1.50;99.90;;;;;;5109632;27;20023;-61
2023/12/05 09:34:33;;;;;;;52.73;33.80;;;1.50;99.90;;;;;;5112605;27;20169;-61
2023/12/05 09:36:59;;;;;;;57.03;34.40;;;1.60;99.90;;;;;;5108333;27;20466;-62
2023/12/05 09:39:25;;;;;;;54.97;34.33;;;1.60;99.90;;;;;;5107829;27;20027;-61
2023/12/05 09:41:53;;;;;;;49.20;33.03;;;1.50;99.90;;;;;;5108906;27;20047;-60
2023/12/05 09:44:21;;;;;;;52.50;33.75;;;1.60;99.90;;;;;;5106929;27;20039;-60
2023/12/05 09:46:51;;;;;;;55.75;34.42;;;1.60;99.90;;;;;;5108442;27;20068;-60
2023/12/05 09:49:18;;;;;;;51.20;34.33;;;1.60;99.90;;;;;;5106673;27;20126;-60
2023/12/05 09:51:46;;;;;;;56.38;33.03;;;1.60;99.90;;;;;;5106798;27;20043;-60
2023/12/05 09:54:13;;;;;;;56.35;33.90;;;1.60;99.90;;;;;;5107234;27;20039;-60
2023/12/05 09:56:39;;;;;;;52.83;32.38;;;1.60;99.90;;;;;;5108144;27;20032;-61
2023/12/05 09:59:05;;;;;;;54.35;34.70;;;1.60;99.90;;;;;;5105399;27;20536;-61
2023/12/05 10:01:33;;;;;;;55.58;34.15;;;1.60;99.90;;;;;;5108114;27;20120;-60
2023/12/05 10:04:01;;;;;;;63.47;36.03;;;1.60;99.90;;;;;;5101828;27;20422;-60
2023/12/05 10:06:27;;;;;;;57.55;37.15;;;1.60;99.90;;;;;;5107627;27;20035;-61
2023/12/05 10:08:54;;;;;;;64.15;37.42;;;1.60;99.90;;;;;;5102883;27;20027;-62
2023/12/05 10:11:22;;;;;;;60.78;35.15;;;1.60;99.90;;;;;;5097110;27;20360;-62
2023/12/05 10:13:49;;;;;;;60.58;34.95;;;1.60;99.90;;;;;;5102290;27;20418;-59
2023/12/05 10:16:16;;;;;;;;;;;1.60;99.90;;;;;;5106588;27;20331;-61
2023/12/05 10:18:44;;;;;;;56.85;34.15;;;1.60;99.90;;;;;;5106488;27;19920;-59
2023/12/05 10:21:10;;;;;;;54.10;32.72;;;1.60;99.90;;;;;;5089551;27;20054;-60
2023/12/05 10:23:36;;;;;;;65.03;36.20;;;1.60;99.90;;;;;;5107576;27;20456;-60
2023/12/05 10:26:02;;;;;;;59.95;36.38;;;1.70;99.90;;;;;;5106644;27;20409;-60
2023/12/05 10:28:27;;;;;;;57.88;36.05;;;1.60;99.90;;;;;;5107707;27;20550;-60
2023/12/05 10:30:53;;;;;;;53.63;35.13;;;1.70;99.90;;;;;;5106922;27;20114;-59
2023/12/05 10:33:21;;;;;;;56.07;34.57;;;1.70;99.90;;;;;;5102809;27;20410;-59
2023/12/05 10:35:47;;;;;;;57.75;33.75;;;1.70;99.90;;;;;;5102414;27;20051;-61
2023/12/05 10:38:17;;;;;;;54.67;33.08;;;1.60;99.90;;;;;;5104951;27;20128;-60
2023/12/05 10:40:49;;;;;;;62.83;35.40;;;1.60;99.90;;;;;;5107514;27;20279;-59
2023/12/05 10:43:17;;;;;;;53.97;33.58;;;1.60;99.90;;;;;;5108803;27;20043;-60
2023/12/05 10:45:42;;;;;;;50.58;30.95;;;1.60;99.90;;;;;;5107990;27;20047;-60
2023/12/05 10:48:11;;;;;;;55.72;32.42;;;1.70;99.90;;;;;;5107435;27;20043;-60
2023/12/05 10:50:38;;;;;;;53.78;32.75;;;1.60;99.90;;;;;;5109443;27;20598;-60
2023/12/05 10:53:05;;;;;;;56.08;33.78;;;1.60;99.90;;;;;;5107666;27;20422;-61
2023/12/05 10:55:31;;;;;;;56.78;33.45;;;1.70;99.90;;;;;;5105446;27;20038;-60
2023/12/05 10:57:58;;;;;;;52.05;31.40;;;1.70;99.90;;;;;;5090604;28;20039;-60
2023/12/05 11:00:24;;;;;;;52.53;33.90;;;1.70;99.90;;;;;;5108703;27;20470;-60
2023/12/05 11:02:53;;;;;;;53.70;33.20;;;1.70;99.90;;;;;;5107167;27;20220;-60
2023/12/05 11:05:19;;;;;;;60.75;35.20;;;1.70;99.90;;;;;;5106937;27;20031;-60
2023/12/05 11:07:45;;;;;;;57.85;34.03;;;1.70;99.90;;;;;;5108351;27;20456;-59
2023/12/05 11:10:11;;;;;;;51.97;33.10;;;1.70;99.90;;;;;;5104728;27;20034;-59
2023/12/05 11:12:39;;;;;;;53.35;32.22;;;1.70;99.90;;;;;;5109080;27;20046;-58
2023/12/05 11:15:08;;;;;;;56.63;33.00;;;1.70;99.90;;;;;;5106871;27;20080;-59
2023/12/05 11:17:45;;;;;;;53.55;32.22;;;1.70;99.90;;;;;;5091370;27;20447;-59
2023/12/05 11:20:21;;;;;;;55.33;32.35;;;1.70;99.90;;;;;;5107012;27;20142;-59
2023/12/05 11:23:10;;;;;;;49.45;30.25;;;1.70;99.90;;;;;;5106681;27;20050;-59
2023/12/05 11:26:20;;;;;;;52.90;33.22;;;1.70;99.90;;;;;;5100225;27;20084;-59
2023/12/05 11:29:08;;;;;;;55.45;32.92;;;1.70;99.90;;;;;;5103076;27;20529;-59
2023/12/05 11:32:11;;;;;;;54.75;31.70;;;1.70;99.90;;;;;;5097013;27;20043;-58
2023/12/05 11:34:39;;;;;;;56.22;33.58;;;1.70;99.90;;;;;;5103799;27;20093;-59
2023/12/05 11:37:08;;;;;;;51.67;32.92;;;1.70;99.90;;;;;;5106608;27;20121;-59
2023/12/05 11:39:34;;;;;;;56.90;34.10;;;1.70;99.90;;;;;;5106744;28;20081;-58
2023/12/05 11:42:08;;;;;;;56.85;32.22;;;1.70;99.90;;;;;;5109021;28;20067;-59
2023/12/05 11:44:36;;;;;;;54.50;33.50;;;1.70;99.90;;;;;;5107347;28;20673;-59
2023/12/05 11:47:04;;;;;;;54.22;32.83;;;1.70;99.90;;;;;;5105866;28;20494;-58
2023/12/05 11:49:50;;;;;;;53.95;33.15;;;1.70;99.90;;;;;;5093067;28;20038;-58
2023/12/05 11:52:19;;;;;;;48.38;31.70;;;1.70;99.90;;;;;;5107501;28;20043;-59
2023/12/05 11:54:46;;;;;;;46.55;30.35;;;1.80;99.90;;;;;;5108285;27;20112;-59
2023/12/05 11:57:20;;;;;;;49.70;31.52;;;1.80;99.90;;;;;;5109566;28;20042;-61
2023/12/05 11:59:48;;;;;;;49.42;31.35;;;1.80;99.90;;;;;;5112771;28;20479;-59
2023/12/05 12:02:16;;;;;;;51.30;31.98;;;1.80;99.90;;;;;;5105844;28;20214;-59
2023/12/05 12:04:45;;;;;;;45.60;29.92;;;1.80;99.90;;;;;;5101919;27;20039;-59
2023/12/05 12:07:11;;;;;;;44.97;28.67;;;1.80;99.90;;;;;;5107307;28;20366;-58
2023/12/05 12:09:39;;;;;;;45.60;28.87;;;1.80;99.90;;;;;;5110056;28;20238;-58
2023/12/05 12:12:07;;;;;;;47.42;30.77;;;1.80;99.90;;;;;;5105976;28;20842;-58
2023/12/05 12:14:32;;;;;;;47.22;30.60;;;1.80;99.90;;;;;;5107395;28;20910;-59
2023/12/05 12:17:04;;;;;;;49.07;31.37;;;1.80;99.90;;;;;;5106215;28;20084;-58
2023/12/05 12:19:30;;;;;;;49.70;31.13;;;1.80;99.90;;;;;;5109151;28;21022;-60
2023/12/05 12:21:55;;;;;;;45.55;29.35;;;1.80;99.90;;;;;;5106421;28;20071;-60
2023/12/05 12:24:24;;;;;;;43.75;28.83;;;1.80;99.90;;;;;;5104467;28;20113;-61
2023/12/05 12:26:54;;;;;;;42.97;28.38;;;1.80;99.90;;;;;;5095812;28;20140;-60
2023/12/05 12:29:21;;;;;;;39.50;26.58;;;1.80;99.90;;;;;;5103058;28;20035;-60
2023/12/05 12:31:48;;;;;;;45.20;29.48;;;1.80;99.90;;;;;;5105466;28;20067;-60
2023/12/05 12:34:26;;;;;;;45.75;27.95;;;1.80;99.90;;;;;;5104258;28;20031;-59
2023/12/05 12:36:53;;;;;;;48.30;29.38;;;1.90;99.90;;;;;;5106895;28;20036;-59